createdAt,value
2018-06-30T00:00:22.776Z,1.00
2018-06-30T00:05:26.137Z,1.00
2018-06-30T00:10:31.354Z,1.10
2018-06-30T00:15:34.949Z,1.57
2018-06-30T00:20:41.834Z,1.00
2018-06-30T00:25:45.042Z,0.90
2018-06-30T00:30:49.549Z,0.80
2018-06-30T00:35:53.774Z,1.27
2018-06-30T00:40:57.035Z,1.00
2018-06-30T00:46:00.268Z,0.90
2018-06-30T00:51:03.545Z,0.80
2018-06-30T00:56:06.790Z,0.60
2018-06-30T01:01:10.018Z,0.80
2018-06-30T01:06:13.347Z,0.70
2018-06-30T01:11:16.637Z,1.10
2018-06-30T01:16:20.103Z,1.23
2018-06-30T01:21:23.300Z,0.90
2018-06-30T01:26:26.518Z,1.17
2018-06-30T01:31:29.904Z,1.30
2018-06-30T01:36:33.422Z,1.10
2018-06-30T01:41:37.664Z,1.13
2018-06-30T01:46:40.904Z,0.93
2018-06-30T01:51:44.137Z,1.00
2018-06-30T01:56:47.775Z,1.20
2018-06-30T02:01:51.219Z,1.00
2018-06-30T02:06:54.493Z,0.80
2018-06-30T02:11:57.721Z,0.80
2018-06-30T02:17:01.047Z,0.90
2018-06-30T02:22:04.304Z,0.93
2018-06-30T02:27:07.589Z,0.80
2018-06-30T02:32:10.803Z,0.70
2018-06-30T02:37:14.283Z,0.90
2018-06-30T02:42:17.738Z,0.70
2018-06-30T02:47:21.076Z,0.83
2018-06-30T02:52:24.381Z,0.90
2018-06-30T02:57:27.893Z,0.67
2018-06-30T03:02:31.103Z,0.80
2018-06-30T03:07:34.364Z,0.70
2018-06-30T03:12:37.658Z,0.83
2018-06-30T03:17:40.860Z,0.70
2018-06-30T03:22:44.083Z,0.70
2018-06-30T03:27:47.233Z,0.70
2018-06-30T03:32:50.537Z,0.80
2018-06-30T03:37:53.926Z,0.77
2018-06-30T03:42:57.132Z,0.70
2018-06-30T03:48:00.784Z,1.00
2018-06-30T03:53:04.108Z,0.60
2018-06-30T03:58:07.321Z,0.90
2018-06-30T04:03:10.831Z,0.77
2018-06-30T04:08:14.058Z,0.80
2018-06-30T04:13:17.259Z,0.60
2018-06-30T04:18:20.820Z,0.70
2018-06-30T04:23:24.031Z,0.87
2018-06-30T04:28:27.701Z,0.77
2018-06-30T04:33:31.714Z,0.77
2018-06-30T04:38:34.776Z,0.60
2018-06-30T04:43:38.144Z,0.50
2018-06-30T04:48:41.384Z,0.70
2018-06-30T04:53:45.011Z,0.60
2018-06-30T04:58:48.142Z,0.70
2018-06-30T05:04:08.775Z,0.70
2018-06-30T05:09:12.014Z,0.60
2018-06-30T05:14:15.396Z,0.53
2018-06-30T05:19:19.030Z,0.60
2018-06-30T05:24:22.262Z,0.73
2018-06-30T05:29:32.095Z,0.70
2018-06-30T05:34:36.158Z,0.53
2018-06-30T05:39:39.511Z,0.60
2018-06-30T05:44:43.358Z,0.67
2018-06-30T05:49:46.565Z,0.40
2018-06-30T05:54:50.128Z,0.60
2018-06-30T05:59:53.398Z,0.50
2018-06-30T06:04:56.654Z,0.80
2018-06-30T06:09:59.949Z,0.70
2018-06-30T06:15:03.181Z,0.50
2018-06-30T06:20:07.339Z,0.60
2018-06-30T06:25:10.885Z,0.63
2018-06-30T06:30:14.253Z,0.67
2018-06-30T06:35:17.473Z,0.70
2018-06-30T06:40:20.761Z,0.47
2018-06-30T06:45:24.310Z,0.60
2018-06-30T06:50:28.634Z,0.40
2018-06-30T06:55:31.950Z,0.60
2018-06-30T07:00:35.135Z,0.60
2018-06-30T07:05:38.459Z,0.70
2018-06-30T07:10:41.788Z,0.67
2018-06-30T07:15:45.015Z,0.50
2018-06-30T07:20:48.408Z,0.57
2018-06-30T07:25:51.609Z,0.90
2018-06-30T07:30:55.534Z,0.67
2018-06-30T07:35:58.832Z,0.60
2018-06-30T07:41:02.080Z,0.70
2018-06-30T07:46:06.213Z,0.83
2018-06-30T07:51:09.505Z,0.70
2018-06-30T07:56:12.825Z,0.90
2018-06-30T08:01:16.089Z,0.50
2018-06-30T08:06:19.572Z,0.63
2018-06-30T08:11:22.745Z,0.77
2018-06-30T08:16:25.765Z,0.90
2018-06-30T08:21:29.284Z,1.73
2018-06-30T08:26:32.833Z,0.67
2018-06-30T08:31:36.020Z,0.80
2018-06-30T08:36:40.178Z,0.70
2018-06-30T08:41:43.415Z,0.60
2018-06-30T08:46:46.945Z,0.70
2018-06-30T08:51:50.168Z,0.63
2018-06-30T08:56:53.537Z,1.00
2018-06-30T09:01:56.845Z,0.60
2018-06-30T09:07:00.551Z,0.67
2018-06-30T09:12:03.874Z,0.67
2018-06-30T09:17:07.131Z,0.80
2018-06-30T09:22:10.805Z,0.87
2018-06-30T09:27:14.163Z,1.10
2018-06-30T09:32:17.677Z,0.77
2018-06-30T09:37:21.168Z,1.00
2018-06-30T09:42:24.403Z,1.00
2018-06-30T09:47:27.629Z,1.00
2018-06-30T09:52:30.944Z,0.90
2018-06-30T09:57:34.263Z,1.07
2018-06-30T10:02:38.021Z,1.10
2018-06-30T10:07:41.313Z,0.97
2018-06-30T10:12:45.235Z,1.00
2018-06-30T10:17:48.483Z,0.67
2018-06-30T10:22:51.872Z,0.70
2018-06-30T10:27:55.259Z,0.70
2018-06-30T10:32:59.496Z,0.60
2018-06-30T10:38:02.794Z,0.80
2018-06-30T10:43:06.241Z,1.07
2018-06-30T10:48:09.730Z,1.10
2018-06-30T10:53:13.292Z,1.00
2018-06-30T10:58:17.480Z,1.00
2018-06-30T11:03:21.089Z,1.30
2018-06-30T11:08:24.393Z,7.03
2018-06-30T11:13:27.642Z,6.23
2018-06-30T11:18:33.452Z,2.90
2018-06-30T11:23:39.041Z,3.07
2018-06-30T11:28:42.367Z,2.83
2018-06-30T11:33:48.838Z,3.00
2018-06-30T11:38:53.373Z,1.90
2018-06-30T11:43:57.512Z,1.57
2018-06-30T11:49:01.600Z,1.23
2018-06-30T11:54:07.708Z,1.33
2018-06-30T11:59:12.132Z,1.13
2018-06-30T12:04:17.404Z,1.10
2018-06-30T12:09:21.664Z,1.13
2018-06-30T12:14:27.401Z,1.07
2018-06-30T12:19:30.675Z,1.20
2018-06-30T12:24:34.106Z,1.33
2018-06-30T12:29:37.741Z,1.10
2018-06-30T12:34:41.096Z,1.70
2018-06-30T12:39:44.364Z,1.20
2018-06-30T12:44:48.084Z,1.50
2018-06-30T12:49:51.778Z,1.00
2018-06-30T12:54:55.342Z,1.10
2018-06-30T12:59:58.977Z,1.13
2018-06-30T13:05:02.360Z,1.00
2018-06-30T13:10:05.887Z,1.03
2018-06-30T13:15:09.489Z,1.13
2018-06-30T13:20:12.974Z,0.80
2018-06-30T13:25:16.237Z,1.43
2018-06-30T13:30:19.777Z,0.80
2018-06-30T13:35:27.836Z,0.60
2018-06-30T13:40:31.107Z,1.10
2018-06-30T13:45:35.964Z,0.90
2018-06-30T13:50:40.725Z,0.90
2018-06-30T13:55:44.690Z,1.30
2018-06-30T14:00:48.358Z,1.53
2018-06-30T14:05:53.265Z,1.17
2018-06-30T14:10:59.006Z,1.40
2018-06-30T14:16:02.681Z,1.17
2018-06-30T14:21:08.777Z,0.90
2018-06-30T14:26:12.071Z,0.80
2018-06-30T14:31:15.754Z,1.00
2018-06-30T14:36:21.916Z,1.37
2018-06-30T14:41:25.221Z,0.90
2018-06-30T14:46:28.514Z,0.80
2018-06-30T14:51:31.969Z,1.00
2018-06-30T14:56:38.650Z,0.90
2018-06-30T15:01:42.629Z,1.33
2018-06-30T15:06:46.203Z,1.07
2018-06-30T15:11:49.962Z,2.20
2018-06-30T15:16:53.376Z,1.50
2018-06-30T15:21:56.608Z,1.23
2018-06-30T15:27:00.420Z,1.50
2018-06-30T15:32:03.720Z,1.10
2018-06-30T15:37:07.196Z,1.40
2018-06-30T15:42:10.824Z,0.90
2018-06-30T15:47:14.167Z,1.60
2018-06-30T15:52:17.648Z,1.20
2018-06-30T15:57:20.930Z,1.10
2018-06-30T16:02:24.218Z,1.00
2018-06-30T16:07:27.539Z,1.07
2018-06-30T16:12:31.751Z,1.00
2018-06-30T16:17:34.998Z,0.90
2018-06-30T16:22:38.242Z,1.37
2018-06-30T16:27:41.715Z,0.93
2018-06-30T16:32:45.170Z,0.93
2018-06-30T16:37:48.445Z,1.10
2018-06-30T16:42:51.654Z,1.60
2018-06-30T16:47:55.100Z,0.90
2018-06-30T16:52:59.240Z,1.03
2018-06-30T16:58:02.478Z,0.90
2018-06-30T17:03:06.655Z,1.37
2018-06-30T17:08:10.011Z,0.87
2018-06-30T17:13:13.609Z,1.10
2018-06-30T17:18:16.855Z,0.80
2018-06-30T17:23:20.099Z,0.70
2018-06-30T17:28:24.062Z,0.70
2018-06-30T17:33:27.095Z,1.20
2018-06-30T17:38:30.587Z,0.80
2018-06-30T17:43:33.903Z,0.83
2018-06-30T17:48:37.139Z,0.90
2018-06-30T17:53:40.524Z,0.77
2018-06-30T17:58:43.782Z,0.93
2018-06-30T18:03:51.981Z,0.67
2018-06-30T18:08:55.789Z,0.80
2018-06-30T18:13:59.383Z,0.90
2018-06-30T18:19:03.208Z,0.70
2018-06-30T18:24:07.067Z,0.80
2018-06-30T18:29:10.309Z,0.87
2018-06-30T18:34:13.562Z,0.80
2018-06-30T18:39:17.568Z,1.30
2018-06-30T18:44:20.934Z,1.70
2018-06-30T18:49:24.254Z,1.77
2018-06-30T18:54:27.647Z,2.13
2018-06-30T18:59:31.161Z,1.40
2018-06-30T19:04:34.486Z,1.60
2018-06-30T19:09:37.783Z,1.50
2018-06-30T19:14:41.006Z,1.43
2018-06-30T19:19:44.289Z,1.73
2018-06-30T19:24:47.689Z,1.10
2018-06-30T19:29:52.257Z,1.40
2018-06-30T19:34:55.716Z,0.97
2018-06-30T19:39:59.549Z,1.33
2018-06-30T19:45:04.994Z,1.23
2018-06-30T19:50:08.281Z,1.20
2018-06-30T19:55:11.314Z,1.57
2018-06-30T20:00:14.638Z,1.33
2018-06-30T20:05:18.424Z,2.50
2018-06-30T20:10:22.387Z,1.83
2018-06-30T20:15:25.900Z,2.03
2018-06-30T20:20:29.500Z,1.67
2018-06-30T20:25:32.738Z,1.63
2018-06-30T20:30:35.916Z,1.80
2018-06-30T20:35:39.212Z,1.90
2018-06-30T20:40:42.544Z,2.30
2018-06-30T20:45:47.099Z,2.07
2018-06-30T20:50:50.553Z,1.80
2018-06-30T20:55:54.572Z,1.80
2018-06-30T21:00:57.860Z,1.33
2018-06-30T21:06:01.440Z,1.63
2018-06-30T21:11:04.778Z,1.63
2018-06-30T21:16:08.471Z,1.70
2018-06-30T21:21:12.603Z,1.77
2018-06-30T21:26:15.806Z,1.30
2018-06-30T21:31:19.278Z,1.20
2018-06-30T21:36:22.514Z,1.20
2018-06-30T21:41:26.043Z,1.33
2018-06-30T21:46:29.508Z,2.00
2018-06-30T21:51:32.856Z,1.10
2018-06-30T21:56:36.118Z,1.30
2018-06-30T22:01:39.452Z,1.10
2018-06-30T22:06:44.031Z,1.37
2018-06-30T22:11:47.785Z,1.20
2018-06-30T22:16:51.097Z,1.23
2018-06-30T22:21:54.309Z,1.10
2018-06-30T22:26:57.447Z,1.40
2018-06-30T22:32:00.713Z,1.80
2018-06-30T22:37:05.222Z,1.03
2018-06-30T22:42:08.461Z,1.10
2018-06-30T22:47:11.914Z,1.10
2018-06-30T22:52:15.839Z,1.23
2018-06-30T22:57:19.149Z,1.13
2018-06-30T23:02:22.591Z,0.97
2018-06-30T23:07:25.860Z,1.00
2018-06-30T23:12:29.633Z,2.60
2018-06-30T23:17:33.209Z,1.20
2018-06-30T23:22:46.499Z,1.33
2018-06-30T23:27:49.929Z,0.80
2018-06-30T23:32:53.289Z,0.90
2018-06-30T23:37:58.195Z,0.90
2018-06-30T23:43:01.460Z,0.90
2018-06-30T23:48:05.636Z,0.80
2018-06-30T23:53:09.271Z,1.10
2018-06-30T23:58:12.850Z,0.77
